Details From KMCC - Mc Clellan Afld
To KSBA - Santa Barbara Mun
Flight Number -
Tags Real Decoded
Created
Modified
Stats Distance 266 nm / 493 km
Max Altitude 0 ft / 0 m
Waypoints 2
Social Downloads 0
Likes 0
Share VATSIM

Download

Looking for another format? Having issues loading an existing format? Contact us
Advertisement - Login to hide

Notes

Decoded

Route

KMCC KSBA

ID Type Via Altitude Latitude Longitude Leg Dist Tot Dist Heading (true) Name
O KMCC APT - 0 ft / 0 m 38.68219˚ -121.40058˚ - 0 nm - -
O KSBA APT - 0 ft / 0 m 34.43077˚ -119.84036˚ 266 nm 266 nm 163° / 164° Santa Barbara Mun

Altitude Profile

Advertisement - Login to hide

Weather


0- 5 10 15 20 25 30 35+ Temperature / ° C

Clouds and Precipitation
Forecast for 2017-12-15 12:00 UTC. Updated an hour ago

Ground ~20,000 ft ~40,000 ft Winds

KMCC

Details ICAO KMCC (MCC)
Name MC CLELLAN AFLD
Region United States
Timezone America/Los_Angeles (UTC-8.0)
Stats Elevation 75 ft / 23 m (AMSL)
Location 38.667637° -121.400600°
Runways 1
Magnetic Variation 13.534° E

METAR

KMCC 151150Z AUTO 01003KT 5SM BR FEW018 SCT022 02/02 A3022 RMK AO2

Decode

TAF

Not found

Departure Runways

ID Width Length Bearing (true) Bearing (mag) Surface Threshold Offset Overrun Length
16 200 ft / 61 m 10,620 ft / 3,237 m 180.07° 166.54° Concrete 0 ft / 0 m 1,273 ft / 388 m
34 200 ft / 61 m 10,620 ft / 3,237 m 0.07° 346.54° Concrete 0 ft / 0 m 1,125 ft / 343 m

KSBA

Details ICAO KSBA (SBA)
Name Santa Barbara Mun
Region United States
Timezone America/Los_Angeles (UTC-8.0)
Stats Elevation 13 ft / 4 m (AMSL)
Location 34.425961° -119.840724°
Runways 3
Magnetic Variation 12.372° E

METAR

KSBA 151153Z AUTO 06003KT 7SM FU CLR 04/M02 A3010 RMK AO2 SLP191 T00391017 10072 20017 58003

Decode

TAF

KSBA 151158Z 1512/1612 VRB03KT 6SM FU SKC FM151600 16006KT 6SM FU SKC FM151900 25008KT 6SM FU SKC FM160300 VRB03KT 6SM FU SKC

Decode

Destination Runways

ID Width Length Bearing (true) Bearing (mag) Surface Threshold Offset Overrun Length
07 151 ft / 46 m 6,047 ft / 1,843 m 88.54° 76.17° Asphalt 0 ft / 0 m 0 ft / 0 m
15L 75 ft / 23 m 4,182 ft / 1,275 m 165.71° 153.34° Asphalt 217 ft / 66 m 0 ft / 0 m
15R 98 ft / 30 m 4,186 ft / 1,276 m 165.71° 153.34° Asphalt 0 ft / 0 m 0 ft / 0 m
25 151 ft / 46 m 6,047 ft / 1,843 m 268.55° 256.18° Asphalt 0 ft / 0 m 0 ft / 0 m
33L 98 ft / 30 m 4,186 ft / 1,276 m 345.71° 333.34° Asphalt 0 ft / 0 m 0 ft / 0 m
33R 75 ft / 23 m 4,182 ft / 1,275 m 345.72° 333.35° Asphalt 0 ft / 0 m 0 ft / 0 m

Approach Navaids

Runway Type Ident Frequency Range Bearing (true) Bearing (mag) Slope Elevation
07 Localiser ISBA 110.30 MHz 18 nm / 33 km 88.51° 76.14° - 16 ft / 5 m (AMSL)
07 Glidescope ISBA 110.30 MHz 10 nm / 19 km 89.00° 76.63° 3.00° 13 ft / 4 m (AMSL)
07 DME ISBA 110.30 MHz 18 nm / 33 km - - - 29 ft / 9 m (AMSL)